createdAt,value
2018-03-28T00:00:04.894Z,78.78
2018-03-28T00:01:08.242Z,78.80
2018-03-28T00:02:11.602Z,78.87
2018-03-28T00:03:14.946Z,78.91
2018-03-28T00:04:18.316Z,78.93
2018-03-28T00:05:21.719Z,78.95
2018-03-28T00:06:25.048Z,78.94
2018-03-28T00:07:28.396Z,78.94
2018-03-28T00:08:31.701Z,78.94
2018-03-28T00:09:35.039Z,78.93
2018-03-28T00:10:38.388Z,78.93
2018-03-28T00:11:42.013Z,78.93
2018-03-28T00:12:45.361Z,78.93
2018-03-28T00:13:48.739Z,78.90
2018-03-28T00:14:52.052Z,78.90
2018-03-28T00:15:55.373Z,78.89
2018-03-28T00:16:58.739Z,78.89
2018-03-28T00:18:02.598Z,78.88
2018-03-28T00:19:05.924Z,78.87
2018-03-28T00:20:09.253Z,78.85
2018-03-28T00:21:12.623Z,78.83
2018-03-28T00:22:16.272Z,78.83
2018-03-28T00:23:19.589Z,78.84
2018-03-28T00:24:22.922Z,78.86
2018-03-28T00:25:26.251Z,78.83
2018-03-28T00:26:29.566Z,78.87
2018-03-28T00:27:32.925Z,78.87
2018-03-28T00:28:36.233Z,78.86
2018-03-28T00:29:39.581Z,78.87
2018-03-28T00:30:42.975Z,78.90
2018-03-28T00:31:46.297Z,78.90
2018-03-28T00:32:49.750Z,78.88
2018-03-28T00:33:53.069Z,78.88
2018-03-28T00:34:57.796Z,78.88
2018-03-28T00:36:01.180Z,78.88
2018-03-28T00:37:04.509Z,78.86
2018-03-28T00:38:07.880Z,78.84
2018-03-28T00:39:11.194Z,78.84
2018-03-28T00:40:14.609Z,78.82
2018-03-28T00:41:17.960Z,78.83
2018-03-28T00:42:21.295Z,78.82
2018-03-28T00:43:24.642Z,78.83
2018-03-28T00:44:29.771Z,78.80
2018-03-28T00:45:33.135Z,78.81
2018-03-28T00:46:36.517Z,78.84
2018-03-28T00:47:39.908Z,78.86
2018-03-28T00:48:43.234Z,78.81
2018-03-28T00:49:46.575Z,78.77
2018-03-28T00:50:49.885Z,78.74
2018-03-28T00:51:53.256Z,78.75
2018-03-28T00:52:56.573Z,78.74
2018-03-28T00:53:59.912Z,78.73
2018-03-28T00:55:03.277Z,78.72
2018-03-28T00:56:06.620Z,78.71
2018-03-28T00:57:09.969Z,78.72
2018-03-28T00:58:13.319Z,78.72
2018-03-28T00:59:16.717Z,78.72
2018-03-28T01:00:20.108Z,78.71
2018-03-28T01:01:23.434Z,78.70
2018-03-28T01:02:27.237Z,78.70
2018-03-28T01:03:30.551Z,78.68
2018-03-28T01:04:33.892Z,78.65
2018-03-28T01:05:37.256Z,78.63
2018-03-28T01:06:40.565Z,78.62
2018-03-28T01:07:43.948Z,78.62
2018-03-28T01:08:47.266Z,78.59
2018-03-28T01:09:50.659Z,78.57
2018-03-28T01:10:53.990Z,78.55
2018-03-28T01:11:57.353Z,78.54
2018-03-28T01:13:00.685Z,78.54
2018-03-28T01:14:04.005Z,78.53
2018-03-28T01:15:07.395Z,78.54
2018-03-28T01:16:10.726Z,78.52
2018-03-28T01:17:14.043Z,78.50
2018-03-28T01:18:17.364Z,78.48
2018-03-28T01:19:20.679Z,78.45
2018-03-28T01:20:24.017Z,78.44
2018-03-28T01:21:27.382Z,78.41
2018-03-28T01:22:30.768Z,78.40
2018-03-28T01:23:34.120Z,78.40
2018-03-28T01:24:37.445Z,78.37
2018-03-28T01:25:41.264Z,78.36
2018-03-28T01:26:44.597Z,78.35
2018-03-28T01:27:48.703Z,78.35
2018-03-28T01:28:52.019Z,78.37
2018-03-28T01:29:55.354Z,78.38
2018-03-28T01:30:59.833Z,78.34
2018-03-28T01:32:03.137Z,78.31
2018-03-28T01:33:06.492Z,78.29
2018-03-28T01:34:09.824Z,78.26
2018-03-28T01:35:14.484Z,78.25
2018-03-28T01:36:17.849Z,78.25
2018-03-28T01:37:21.179Z,78.23
2018-03-28T01:38:24.487Z,78.21
2018-03-28T01:39:27.842Z,78.19
2018-03-28T01:40:31.152Z,78.18
2018-03-28T01:41:34.557Z,78.19
2018-03-28T01:42:38.009Z,78.16
2018-03-28T01:43:41.367Z,78.13
2018-03-28T01:44:44.676Z,78.10
2018-03-28T01:45:48.011Z,78.08
2018-03-28T01:46:51.381Z,78.07
2018-03-28T01:47:54.672Z,78.05
2018-03-28T01:48:57.992Z,78.03
2018-03-28T01:50:01.369Z,78.05
2018-03-28T01:51:04.703Z,78.02
2018-03-28T01:52:08.047Z,77.99
2018-03-28T01:53:11.385Z,77.97
2018-03-28T01:54:14.715Z,77.94
2018-03-28T01:55:18.849Z,77.92
2018-03-28T01:56:22.232Z,77.91
2018-03-28T01:57:26.169Z,77.91
2018-03-28T01:58:29.492Z,77.90
2018-03-28T01:59:32.900Z,77.86
2018-03-28T02:00:36.227Z,77.87
2018-03-28T02:01:39.549Z,77.86
2018-03-28T02:02:42.905Z,77.85
2018-03-28T02:03:46.235Z,77.87
2018-03-28T02:04:49.607Z,77.83
2018-03-28T02:05:52.906Z,77.82
2018-03-28T02:06:56.293Z,77.84
2018-03-28T02:07:59.582Z,77.85
2018-03-28T02:09:02.898Z,77.85
2018-03-28T02:10:06.219Z,77.86
2018-03-28T02:11:09.531Z,77.87
2018-03-28T02:12:12.860Z,77.87
2018-03-28T02:13:16.256Z,77.83
2018-03-28T02:14:19.560Z,77.83
2018-03-28T02:15:22.891Z,77.84
2018-03-28T02:16:26.227Z,77.85
2018-03-28T02:17:29.627Z,77.84
2018-03-28T02:18:32.954Z,77.82
2018-03-28T02:19:36.342Z,77.82
2018-03-28T02:20:39.738Z,77.79
2018-03-28T02:21:43.064Z,77.80
2018-03-28T02:22:46.382Z,77.78
2018-03-28T02:23:49.736Z,77.75
2018-03-28T02:24:53.086Z,77.74
2018-03-28T02:25:56.415Z,77.74
2018-03-28T02:26:59.764Z,77.74
2018-03-28T02:28:03.084Z,77.74
2018-03-28T02:29:06.423Z,77.75
2018-03-28T02:30:09.761Z,77.76
2018-03-28T02:31:13.109Z,77.75
2018-03-28T02:32:16.457Z,77.76
2018-03-28T02:33:19.818Z,77.76
2018-03-28T02:34:23.159Z,77.77
2018-03-28T02:35:27.395Z,77.76
2018-03-28T02:36:30.732Z,77.77
2018-03-28T02:37:34.051Z,77.75
2018-03-28T02:38:37.397Z,77.77
2018-03-28T02:39:40.865Z,77.79
2018-03-28T02:40:44.182Z,77.82
2018-03-28T02:41:47.502Z,77.85
2018-03-28T02:42:50.807Z,77.86
2018-03-28T02:43:54.127Z,77.89
2018-03-28T02:44:57.477Z,77.91
2018-03-28T02:46:00.813Z,77.91
2018-03-28T02:47:04.190Z,77.93
2018-03-28T02:48:07.548Z,77.93
2018-03-28T02:49:10.897Z,77.95
2018-03-28T02:50:14.331Z,77.96
2018-03-28T02:51:17.638Z,77.99
2018-03-28T02:52:20.950Z,78.02
2018-03-28T02:53:24.271Z,78.02
2018-03-28T02:54:27.600Z,78.01
2018-03-28T02:55:30.938Z,78.00
2018-03-28T02:56:34.883Z,78.00
2018-03-28T02:57:38.247Z,78.00
2018-03-28T02:58:41.568Z,78.00
2018-03-28T02:59:44.877Z,78.03
2018-03-28T03:00:48.240Z,78.05
2018-03-28T03:01:51.568Z,78.05
2018-03-28T03:02:54.913Z,78.05
2018-03-28T03:03:58.238Z,78.04
2018-03-28T03:05:01.638Z,78.03
2018-03-28T03:06:04.985Z,78.03
2018-03-28T03:07:08.297Z,78.04
2018-03-28T03:08:11.662Z,78.00
2018-03-28T03:09:14.982Z,77.99
2018-03-28T03:10:18.301Z,77.94
2018-03-28T03:11:21.664Z,77.89
2018-03-28T03:12:25.177Z,77.87
2018-03-28T03:13:28.515Z,77.87
2018-03-28T03:14:31.920Z,77.85
2018-03-28T03:15:35.232Z,77.85
2018-03-28T03:16:38.689Z,77.85
2018-03-28T03:17:42.717Z,77.82
2018-03-28T03:18:46.023Z,77.81
2018-03-28T03:19:49.391Z,77.78
2018-03-28T03:20:52.781Z,77.77
2018-03-28T03:21:56.137Z,77.75
2018-03-28T03:22:59.465Z,77.74
2018-03-28T03:24:02.800Z,77.69
2018-03-28T03:25:06.116Z,77.65
2018-03-28T03:26:09.428Z,77.64
2018-03-28T03:27:13.438Z,77.64
2018-03-28T03:28:16.760Z,77.63
2018-03-28T03:29:20.083Z,77.61
2018-03-28T03:30:23.401Z,77.61
2018-03-28T03:31:26.713Z,77.61
2018-03-28T03:32:30.073Z,77.59
2018-03-28T03:33:34.940Z,77.58
2018-03-28T03:34:38.297Z,77.56
2018-03-28T03:35:42.426Z,77.53
2018-03-28T03:36:46.399Z,77.50
2018-03-28T03:37:49.759Z,77.47
2018-03-28T03:38:53.519Z,77.45
2018-03-28T03:39:56.895Z,77.42
2018-03-28T03:41:00.213Z,77.37
2018-03-28T03:42:03.628Z,77.38
2018-03-28T03:43:06.968Z,77.37
2018-03-28T03:44:10.297Z,77.36
2018-03-28T03:45:13.860Z,77.30
2018-03-28T03:46:17.191Z,77.28
2018-03-28T03:47:20.504Z,77.24
2018-03-28T03:48:23.859Z,77.23
2018-03-28T03:49:27.206Z,77.24
2018-03-28T03:50:30.612Z,77.23
2018-03-28T03:51:33.923Z,77.23
2018-03-28T03:52:37.253Z,77.22
2018-03-28T03:53:40.664Z,77.22
2018-03-28T03:54:44.004Z,77.21
2018-03-28T03:55:47.322Z,77.20
2018-03-28T03:56:50.639Z,77.20
2018-03-28T03:57:53.978Z,77.17
2018-03-28T03:58:57.350Z,77.15
2018-03-28T04:00:00.730Z,77.13
2018-03-28T04:01:04.060Z,77.12
2018-03-28T04:02:07.395Z,77.09
2018-03-28T04:03:10.743Z,77.04
2018-03-28T04:04:14.124Z,76.96
2018-03-28T04:05:17.426Z,76.91
2018-03-28T04:06:20.789Z,76.84
2018-03-28T04:07:24.112Z,76.78
2018-03-28T04:08:27.454Z,76.74
2018-03-28T04:09:30.831Z,76.70
2018-03-28T04:10:34.320Z,76.69
2018-03-28T04:11:37.624Z,76.68
2018-03-28T04:12:40.948Z,76.65
2018-03-28T04:13:44.362Z,76.62
2018-03-28T04:14:47.745Z,76.63
2018-03-28T04:15:51.103Z,76.59
2018-03-28T04:16:54.427Z,76.58
2018-03-28T04:17:57.762Z,76.55
2018-03-28T04:19:01.084Z,76.54
2018-03-28T04:20:04.439Z,76.53
2018-03-28T04:21:07.755Z,76.54
2018-03-28T04:22:11.067Z,76.54
2018-03-28T04:23:14.415Z,76.52
2018-03-28T04:24:17.741Z,76.50
2018-03-28T04:25:21.108Z,76.48
2018-03-28T04:26:24.424Z,76.46
2018-03-28T04:27:27.770Z,76.43
2018-03-28T04:28:31.064Z,76.38
2018-03-28T04:29:34.388Z,76.40
2018-03-28T04:30:37.735Z,76.37
2018-03-28T04:31:41.097Z,76.38
2018-03-28T04:32:44.403Z,76.38
2018-03-28T04:33:47.746Z,76.40
2018-03-28T04:34:51.069Z,76.40
2018-03-28T04:35:55.496Z,76.39
2018-03-28T04:36:58.835Z,76.40
2018-03-28T04:38:02.147Z,76.41
2018-03-28T04:39:05.501Z,76.42
2018-03-28T04:40:09.291Z,76.42
2018-03-28T04:41:12.634Z,76.41
2018-03-28T04:42:16.031Z,76.40
2018-03-28T04:43:19.379Z,76.38
2018-03-28T04:44:22.696Z,76.38
2018-03-28T04:45:26.066Z,76.38
2018-03-28T04:46:29.510Z,76.37
2018-03-28T04:47:32.848Z,76.37
2018-03-28T04:48:36.217Z,76.37
2018-03-28T04:49:39.528Z,76.38
2018-03-28T04:50:42.854Z,76.36
2018-03-28T04:51:46.353Z,76.36
2018-03-28T04:52:49.672Z,76.36
2018-03-28T04:53:52.997Z,76.39
2018-03-28T04:54:56.386Z,76.39
2018-03-28T04:55:59.824Z,76.40
2018-03-28T04:57:03.226Z,76.39
2018-03-28T04:58:06.579Z,76.36
2018-03-28T04:59:09.940Z,76.32
2018-03-28T05:00:13.250Z,76.28
2018-03-28T05:01:16.597Z,76.28
2018-03-28T05:02:20.001Z,76.27
2018-03-28T05:03:23.352Z,76.26
2018-03-28T05:04:26.721Z,76.22
2018-03-28T05:05:30.062Z,76.18
2018-03-28T05:06:33.365Z,76.18
2018-03-28T05:07:36.717Z,76.17
2018-03-28T05:08:40.071Z,76.25
2018-03-28T05:09:43.394Z,76.19
2018-03-28T05:10:46.721Z,76.18
2018-03-28T05:11:50.087Z,76.15
2018-03-28T05:12:53.493Z,76.12
2018-03-28T05:13:56.832Z,76.10
2018-03-28T05:15:00.211Z,76.12
2018-03-28T05:16:03.599Z,76.13
2018-03-28T05:17:06.997Z,76.18
2018-03-28T05:18:10.637Z,76.17
2018-03-28T05:19:13.970Z,76.12
2018-03-28T05:20:17.352Z,76.10
2018-03-28T05:21:20.689Z,76.08
2018-03-28T05:22:24.063Z,76.11
2018-03-28T05:23:27.450Z,76.12
2018-03-28T05:24:30.788Z,76.10
2018-03-28T05:25:34.181Z,76.07
2018-03-28T05:26:37.482Z,76.07
2018-03-28T05:27:40.827Z,76.07
2018-03-28T05:28:44.211Z,76.06
2018-03-28T05:29:47.546Z,76.05
2018-03-28T05:30:50.893Z,76.06
2018-03-28T05:31:54.220Z,76.06
2018-03-28T05:32:57.576Z,76.06
2018-03-28T05:34:00.932Z,76.07
2018-03-28T05:35:04.277Z,76.07
2018-03-28T05:36:08.591Z,76.07
2018-03-28T05:37:11.887Z,76.06
2018-03-28T05:38:15.230Z,76.06
2018-03-28T05:39:18.638Z,76.06
2018-03-28T05:40:21.937Z,76.01
2018-03-28T05:41:25.308Z,76.03
2018-03-28T05:42:28.692Z,76.04
2018-03-28T05:43:32.012Z,76.03
2018-03-28T05:44:35.380Z,76.02
2018-03-28T05:45:39.002Z,76.00
2018-03-28T05:46:42.442Z,75.98
2018-03-28T05:47:45.765Z,76.02
2018-03-28T05:48:49.081Z,76.02
2018-03-28T05:49:52.452Z,76.04
2018-03-28T05:50:55.819Z,76.04
2018-03-28T05:51:59.172Z,76.02
2018-03-28T05:53:02.630Z,76.00
2018-03-28T05:54:06.000Z,75.98
2018-03-28T05:55:09.379Z,75.97
2018-03-28T05:56:12.704Z,76.00
2018-03-28T05:57:16.036Z,75.98
2018-03-28T05:58:19.347Z,75.97
2018-03-28T05:59:22.673Z,75.96
2018-03-28T06:00:26.062Z,75.98
2018-03-28T06:01:29.386Z,76.00
2018-03-28T06:02:32.791Z,76.01
2018-03-28T06:03:36.827Z,76.02
2018-03-28T06:04:40.245Z,76.00
2018-03-28T06:05:43.625Z,76.02
2018-03-28T06:06:46.966Z,76.02
2018-03-28T06:07:50.314Z,76.02
2018-03-28T06:08:53.635Z,76.01
2018-03-28T06:09:56.957Z,76.03
2018-03-28T06:11:00.290Z,76.06
2018-03-28T06:12:04.059Z,76.01
2018-03-28T06:13:07.408Z,76.09
2018-03-28T06:14:10.802Z,76.06
2018-03-28T06:15:14.113Z,76.03
2018-03-28T06:16:17.500Z,76.02
2018-03-28T06:17:20.940Z,75.99
2018-03-28T06:18:24.408Z,75.99
2018-03-28T06:19:27.776Z,75.96
2018-03-28T06:20:31.137Z,75.94
2018-03-28T06:21:34.507Z,75.91
2018-03-28T06:22:37.835Z,75.87
2018-03-28T06:23:41.149Z,75.85
2018-03-28T06:24:44.635Z,75.87
2018-03-28T06:25:47.906Z,75.88
2018-03-28T06:26:51.228Z,75.87
2018-03-28T06:27:54.553Z,75.84
2018-03-28T06:28:57.921Z,75.87
2018-03-28T06:30:01.510Z,75.88
2018-03-28T06:31:04.838Z,75.88
2018-03-28T06:32:08.216Z,75.82
2018-03-28T06:33:11.641Z,75.78
2018-03-28T06:34:15.054Z,75.78
2018-03-28T06:35:18.389Z,75.75
2018-03-28T06:36:23.459Z,75.74
2018-03-28T06:37:28.333Z,75.74
2018-03-28T06:38:31.756Z,75.75
2018-03-28T06:39:35.099Z,75.74
2018-03-28T06:40:38.432Z,75.73
2018-03-28T06:41:42.713Z,75.68
2018-03-28T06:42:46.046Z,75.59
2018-03-28T06:43:49.399Z,75.66
2018-03-28T06:44:52.857Z,75.72
2018-03-28T06:45:56.182Z,75.73
2018-03-28T06:46:59.553Z,75.77
2018-03-28T06:48:03.653Z,75.74
2018-03-28T06:49:07.375Z,75.69
2018-03-28T06:50:10.749Z,75.66
2018-03-28T06:51:14.087Z,75.61
2018-03-28T06:52:17.463Z,75.56
2018-03-28T06:53:20.792Z,75.57
2018-03-28T06:54:24.106Z,75.60
2018-03-28T06:55:27.453Z,75.63
2018-03-28T06:56:30.792Z,75.67
2018-03-28T06:57:34.477Z,75.75
2018-03-28T06:58:37.842Z,75.74
2018-03-28T06:59:41.197Z,75.68
2018-03-28T07:00:44.506Z,75.64
2018-03-28T07:01:47.833Z,75.60
2018-03-28T07:02:51.166Z,75.56
2018-03-28T07:03:54.533Z,75.49
2018-03-28T07:04:57.860Z,75.44
2018-03-28T07:06:01.275Z,75.38
2018-03-28T07:07:04.581Z,75.36
2018-03-28T07:08:07.933Z,75.34
2018-03-28T07:09:11.276Z,75.30
2018-03-28T07:10:14.796Z,75.22
2018-03-28T07:11:18.876Z,75.18
2018-03-28T07:12:22.231Z,75.13
2018-03-28T07:13:25.591Z,75.09
2018-03-28T07:14:29.027Z,75.02
2018-03-28T07:15:32.332Z,74.97
2018-03-28T07:16:35.696Z,74.96
2018-03-28T07:17:39.023Z,74.91
2018-03-28T07:18:42.376Z,74.89
2018-03-28T07:19:45.742Z,74.82
2018-03-28T07:20:49.673Z,74.76
2018-03-28T07:21:53.006Z,74.73
2018-03-28T07:22:56.331Z,74.71
2018-03-28T07:23:59.653Z,74.63
2018-03-28T07:25:03.089Z,74.55
2018-03-28T07:26:06.573Z,74.53
2018-03-28T07:27:09.882Z,74.50
2018-03-28T07:28:13.208Z,74.49
2018-03-28T07:29:16.521Z,74.45
2018-03-28T07:30:19.900Z,74.38
2018-03-28T07:31:23.241Z,74.33
2018-03-28T07:32:26.769Z,74.30
2018-03-28T07:33:30.964Z,74.26
2018-03-28T07:34:34.317Z,74.19
2018-03-28T07:35:37.661Z,74.14
2018-03-28T07:36:42.231Z,74.08
2018-03-28T07:37:45.583Z,74.05
2018-03-28T07:38:48.941Z,74.00
2018-03-28T07:39:52.240Z,73.96
2018-03-28T07:40:55.638Z,73.84
2018-03-28T07:41:58.983Z,73.80
2018-03-28T07:43:02.308Z,73.73
2018-03-28T07:44:05.692Z,73.68
2018-03-28T07:45:09.174Z,73.62
2018-03-28T07:46:13.301Z,73.59
2018-03-28T07:47:16.629Z,73.52
2018-03-28T07:48:19.961Z,73.53
2018-03-28T07:49:23.383Z,73.42
2018-03-28T07:50:26.686Z,73.26
2018-03-28T07:51:30.084Z,73.24
2018-03-28T07:52:34.077Z,73.23
2018-03-28T07:53:37.395Z,73.20
2018-03-28T07:54:41.674Z,73.19
2018-03-28T07:55:45.005Z,73.17
2018-03-28T07:56:48.351Z,73.18
2018-03-28T07:57:51.698Z,73.12
2018-03-28T07:58:55.183Z,73.06
2018-03-28T07:59:58.655Z,72.94
2018-03-28T08:01:02.022Z,72.84
2018-03-28T08:02:05.399Z,72.70
2018-03-28T08:03:08.813Z,72.58
2018-03-28T08:04:12.144Z,72.51
2018-03-28T08:05:15.564Z,72.48
2018-03-28T08:06:18.984Z,72.44
2018-03-28T08:07:22.326Z,72.43
2018-03-28T08:08:26.588Z,72.42
2018-03-28T08:09:29.969Z,72.37
2018-03-28T08:10:33.241Z,72.32
2018-03-28T08:11:36.616Z,72.28
2018-03-28T08:12:39.991Z,72.23
2018-03-28T08:13:43.329Z,72.14
2018-03-28T08:14:46.642Z,72.11
2018-03-28T08:15:50.151Z,72.13
2018-03-28T08:16:53.469Z,72.12
2018-03-28T08:17:57.027Z,72.12
2018-03-28T08:19:00.384Z,72.08
2018-03-28T08:20:03.741Z,72.05
2018-03-28T08:21:07.145Z,71.96
2018-03-28T08:22:10.463Z,71.92
2018-03-28T08:23:14.124Z,71.95
2018-03-28T08:24:17.747Z,71.95
2018-03-28T08:25:21.081Z,71.93
2018-03-28T08:26:24.424Z,71.91
2018-03-28T08:27:27.766Z,71.96
2018-03-28T08:28:31.148Z,71.98
2018-03-28T08:29:34.480Z,72.01
2018-03-28T08:30:37.801Z,71.91
2018-03-28T08:31:41.271Z,71.80
2018-03-28T08:32:44.598Z,71.70
2018-03-28T08:33:47.954Z,71.54
2018-03-28T08:34:51.265Z,71.50
2018-03-28T08:35:54.586Z,71.30
2018-03-28T08:36:58.878Z,71.20
2018-03-28T08:38:02.222Z,71.20
2018-03-28T08:39:07.508Z,71.16
2018-03-28T08:40:10.828Z,71.10
2018-03-28T08:41:14.139Z,71.01
2018-03-28T08:42:17.542Z,70.95
2018-03-28T08:43:20.884Z,70.92
2018-03-28T08:44:24.555Z,70.81
2018-03-28T08:45:27.848Z,70.70
2018-03-28T08:46:31.165Z,70.72
2018-03-28T08:47:34.530Z,70.74
2018-03-28T08:48:37.918Z,70.62
2018-03-28T08:49:41.341Z,70.53
2018-03-28T08:50:44.700Z,70.48
2018-03-28T08:51:48.068Z,70.44
2018-03-28T08:52:51.389Z,70.42
2018-03-28T08:53:54.704Z,70.42
2018-03-28T08:54:58.091Z,70.32
2018-03-28T08:56:01.395Z,70.16
2018-03-28T08:57:04.797Z,69.99
2018-03-28T08:58:08.112Z,69.85
2018-03-28T08:59:11.436Z,69.81
2018-03-28T09:00:14.825Z,69.75
2018-03-28T09:01:18.227Z,69.70
2018-03-28T09:02:21.569Z,69.64
2018-03-28T09:03:24.905Z,69.54
2018-03-28T09:04:28.389Z,69.52
2018-03-28T09:05:31.749Z,69.57
2018-03-28T09:06:35.105Z,69.55
2018-03-28T09:07:38.410Z,69.52
2018-03-28T09:08:41.760Z,69.53
2018-03-28T09:09:45.113Z,69.50
2018-03-28T09:10:48.479Z,69.44
2018-03-28T09:11:51.842Z,69.54
2018-03-28T09:12:55.198Z,69.51
2018-03-28T09:13:58.528Z,69.41
2018-03-28T09:15:01.874Z,69.42
2018-03-28T09:16:05.257Z,69.41
2018-03-28T09:17:08.560Z,69.38
2018-03-28T09:18:11.888Z,69.39
2018-03-28T09:19:15.234Z,69.48
2018-03-28T09:20:18.577Z,69.58
2018-03-28T09:21:21.961Z,69.71
2018-03-28T09:22:25.343Z,69.87
2018-03-28T09:23:28.667Z,70.00
2018-03-28T09:24:31.988Z,70.15
2018-03-28T09:25:35.380Z,70.37
2018-03-28T09:26:38.708Z,70.37
2018-03-28T09:27:42.028Z,70.36
2018-03-28T09:28:45.364Z,70.30
2018-03-28T09:29:48.692Z,70.30
2018-03-28T09:30:52.006Z,70.32
2018-03-28T09:31:55.340Z,70.36
2018-03-28T09:33:00.295Z,70.34
2018-03-28T09:34:03.635Z,70.27
2018-03-28T09:35:06.963Z,70.19
2018-03-28T09:36:10.281Z,70.14
2018-03-28T09:37:15.682Z,70.01
2018-03-28T09:38:19.000Z,69.99
2018-03-28T09:39:22.320Z,69.98
2018-03-28T09:40:25.699Z,69.97
2018-03-28T09:41:29.010Z,69.98
2018-03-28T09:42:32.360Z,69.96
2018-03-28T09:43:35.697Z,70.03
2018-03-28T09:44:39.031Z,70.06
2018-03-28T09:45:42.399Z,70.15
2018-03-28T09:46:45.784Z,70.20
2018-03-28T09:47:49.142Z,70.26
2018-03-28T09:48:52.617Z,70.26
2018-03-28T09:49:55.960Z,70.23
2018-03-28T09:50:59.318Z,70.17
2018-03-28T09:52:07.322Z,70.17
2018-03-28T09:53:13.824Z,70.21
2018-03-28T09:54:17.376Z,70.18
2018-03-28T09:55:22.724Z,70.19
2018-03-28T09:56:26.066Z,70.22
2018-03-28T09:57:29.359Z,70.08
2018-03-28T09:58:32.696Z,69.95
2018-03-28T09:59:36.016Z,69.81
2018-03-28T10:00:39.364Z,69.80
2018-03-28T10:01:48.203Z,69.64
2018-03-28T10:02:51.526Z,69.51
2018-03-28T10:04:00.515Z,69.28
2018-03-28T10:05:03.882Z,69.21
2018-03-28T10:06:07.188Z,69.01
2018-03-28T10:07:10.528Z,68.86
2018-03-28T10:08:13.859Z,68.75
2018-03-28T10:09:17.298Z,68.44
2018-03-28T10:10:20.816Z,68.28
2018-03-28T10:11:24.132Z,68.19
2018-03-28T10:12:27.452Z,68.07
2018-03-28T10:13:30.872Z,68.03
2018-03-28T10:14:34.200Z,67.84
2018-03-28T10:15:37.641Z,67.75
2018-03-28T10:16:40.951Z,67.71
2018-03-28T10:17:44.310Z,67.62
2018-03-28T10:18:47.632Z,67.63
2018-03-28T10:19:50.991Z,67.63
2018-03-28T10:20:54.399Z,67.60
2018-03-28T10:21:57.755Z,67.54
2018-03-28T10:23:01.052Z,67.45
2018-03-28T10:24:04.743Z,67.38
2018-03-28T10:25:08.557Z,67.28
2018-03-28T10:26:11.986Z,67.14
2018-03-28T10:27:15.313Z,67.05
2018-03-28T10:28:18.654Z,66.96
2018-03-28T10:29:22.042Z,66.87
2018-03-28T10:30:29.574Z,66.76
2018-03-28T10:31:33.659Z,66.62
2018-03-28T10:32:37.855Z,66.54
2018-03-28T10:33:41.198Z,66.44
2018-03-28T10:34:44.741Z,66.43
2018-03-28T10:35:48.152Z,66.50
2018-03-28T10:36:51.481Z,66.51
2018-03-28T10:37:54.832Z,66.46
2018-03-28T10:38:58.151Z,66.44
2018-03-28T10:40:01.464Z,66.35
2018-03-28T10:41:04.810Z,66.38
2018-03-28T10:42:08.164Z,66.47
2018-03-28T10:43:11.498Z,66.47
2018-03-28T10:44:14.831Z,66.46
2018-03-28T10:45:18.154Z,66.46
2018-03-28T10:46:21.564Z,66.46
2018-03-28T10:47:24.864Z,66.46
2018-03-28T10:48:28.279Z,66.50
2018-03-28T10:49:31.654Z,66.50
2018-03-28T10:50:35.056Z,66.50
2018-03-28T10:51:38.455Z,66.38
2018-03-28T10:52:41.764Z,66.23
2018-03-28T10:53:45.182Z,66.28
2018-03-28T10:54:48.527Z,66.35
2018-03-28T10:55:52.029Z,66.33
2018-03-28T10:56:55.400Z,66.39
2018-03-28T10:57:58.725Z,66.44
2018-03-28T10:59:02.104Z,66.46
2018-03-28T11:00:05.412Z,66.46
2018-03-28T11:01:08.728Z,66.44
2018-03-28T11:02:12.075Z,66.34
2018-03-28T11:03:15.438Z,66.34
2018-03-28T11:04:18.752Z,66.49
2018-03-28T11:05:22.089Z,66.58
2018-03-28T11:06:25.442Z,66.68
2018-03-28T11:07:28.804Z,66.85
2018-03-28T11:08:32.121Z,66.88
2018-03-28T11:09:35.509Z,66.90
2018-03-28T11:10:38.814Z,66.95
2018-03-28T11:11:42.127Z,67.06
2018-03-28T11:12:45.585Z,67.17
2018-03-28T11:13:48.921Z,67.27
2018-03-28T11:14:52.258Z,67.36
2018-03-28T11:15:55.632Z,67.53
2018-03-28T11:16:58.920Z,67.61
2018-03-28T11:18:02.362Z,67.71
2018-03-28T11:19:05.654Z,67.77
2018-03-28T11:20:08.975Z,67.87
2018-03-28T11:21:12.335Z,67.92
2018-03-28T11:22:15.641Z,67.94
2018-03-28T11:23:19.213Z,67.93
2018-03-28T11:24:22.653Z,67.89
2018-03-28T11:25:25.944Z,67.83
2018-03-28T11:26:29.340Z,67.84
2018-03-28T11:27:32.655Z,67.93
2018-03-28T11:28:35.985Z,67.84
2018-03-28T11:29:39.303Z,67.77
2018-03-28T11:30:42.678Z,67.69
2018-03-28T11:31:45.967Z,67.65
2018-03-28T11:32:49.321Z,67.57
2018-03-28T11:33:52.692Z,67.66
2018-03-28T11:34:56.049Z,67.33
2018-03-28T11:35:59.361Z,67.21
2018-03-28T11:37:02.769Z,67.16
2018-03-28T11:38:08.015Z,67.00
2018-03-28T11:39:11.446Z,66.86
2018-03-28T11:40:14.730Z,66.88
2018-03-28T11:41:18.045Z,66.74
2018-03-28T11:42:21.376Z,66.71
2018-03-28T11:43:24.700Z,66.59
2018-03-28T11:44:28.088Z,66.55
2018-03-28T11:45:31.421Z,66.56
2018-03-28T11:46:34.755Z,66.32
2018-03-28T11:47:38.103Z,66.42
2018-03-28T11:48:41.470Z,66.38
2018-03-28T11:49:45.469Z,66.22
2018-03-28T11:50:48.839Z,66.22
2018-03-28T11:51:52.903Z,66.31
2018-03-28T11:52:56.239Z,66.36
2018-03-28T11:53:59.625Z,66.49
2018-03-28T11:55:02.972Z,66.66
2018-03-28T11:56:06.288Z,66.75
2018-03-28T11:57:09.993Z,66.57
2018-03-28T11:58:13.368Z,66.48
2018-03-28T11:59:16.738Z,66.38
2018-03-28T12:00:21.865Z,66.29
2018-03-28T12:01:25.190Z,66.31
2018-03-28T12:02:28.505Z,66.23
2018-03-28T12:03:31.847Z,66.33
2018-03-28T12:04:35.238Z,66.26
2018-03-28T12:05:38.581Z,66.25
2018-03-28T12:06:42.087Z,66.34
2018-03-28T12:07:45.412Z,66.46
2018-03-28T12:08:48.743Z,66.72
2018-03-28T12:09:52.100Z,66.84
2018-03-28T12:10:55.465Z,66.93
2018-03-28T12:11:59.659Z,67.05
2018-03-28T12:13:03.018Z,67.20
2018-03-28T12:14:06.354Z,67.45
2018-03-28T12:15:09.747Z,67.46
2018-03-28T12:16:13.188Z,67.31
2018-03-28T12:17:16.524Z,67.46
2018-03-28T12:18:19.878Z,67.64
2018-03-28T12:19:23.212Z,67.79
2018-03-28T12:20:26.591Z,67.95
2018-03-28T12:21:29.892Z,68.16
2018-03-28T12:22:33.251Z,68.42
2018-03-28T12:23:36.623Z,68.62
2018-03-28T12:24:39.944Z,68.73
2018-03-28T12:25:43.291Z,68.94
2018-03-28T12:26:46.723Z,69.02
2018-03-28T12:27:50.023Z,69.06
2018-03-28T12:28:53.345Z,69.14
2018-03-28T12:29:56.715Z,69.26
2018-03-28T12:31:01.016Z,69.33
2018-03-28T12:32:04.379Z,69.33
2018-03-28T12:33:07.766Z,69.41
2018-03-28T12:34:11.770Z,69.34
2018-03-28T12:35:15.159Z,69.23
2018-03-28T12:36:19.209Z,69.11
2018-03-28T12:37:22.590Z,69.17
2018-03-28T12:38:25.944Z,69.39
2018-03-28T12:39:29.255Z,69.75
2018-03-28T12:40:32.561Z,70.01
2018-03-28T12:41:35.882Z,70.06
2018-03-28T12:42:39.251Z,70.21
2018-03-28T12:43:42.576Z,70.34
2018-03-28T12:44:45.950Z,70.47
2018-03-28T12:45:49.276Z,70.48
2018-03-28T12:46:53.035Z,70.65
2018-03-28T12:47:56.625Z,70.76
2018-03-28T12:49:00.006Z,70.74
2018-03-28T12:50:03.560Z,70.76
2018-03-28T12:51:06.915Z,70.90
2018-03-28T12:52:10.339Z,71.06
2018-03-28T12:53:13.666Z,71.23
2018-03-28T12:54:16.981Z,71.20
2018-03-28T12:55:20.501Z,71.37
2018-03-28T12:56:23.657Z,71.49
2018-03-28T12:57:27.061Z,71.63
2018-03-28T12:58:30.431Z,71.69
2018-03-28T12:59:33.936Z,71.52
2018-03-28T13:00:37.272Z,71.47
2018-03-28T13:01:40.647Z,71.68
2018-03-28T13:02:43.964Z,71.89
2018-03-28T13:03:47.332Z,72.01
2018-03-28T13:04:50.651Z,72.11
2018-03-28T13:05:53.977Z,72.16
2018-03-28T13:06:57.315Z,72.20
2018-03-28T13:08:00.737Z,72.28
2018-03-28T13:09:04.049Z,72.44
2018-03-28T13:10:07.496Z,72.33
2018-03-28T13:11:10.766Z,72.10
2018-03-28T13:12:14.075Z,71.69
2018-03-28T13:13:17.395Z,71.20
2018-03-28T13:14:20.789Z,71.02
2018-03-28T13:15:24.180Z,70.87
2018-03-28T13:16:27.515Z,70.90
2018-03-28T13:17:30.840Z,70.83
2018-03-28T13:18:34.184Z,70.75
2018-03-28T13:19:37.549Z,70.71
2018-03-28T13:20:40.936Z,70.49
2018-03-28T13:21:44.258Z,70.34
2018-03-28T13:22:47.636Z,70.18
2018-03-28T13:23:50.987Z,70.06
2018-03-28T13:24:54.371Z,70.03
2018-03-28T13:25:57.743Z,69.96
2018-03-28T13:27:01.062Z,70.00
2018-03-28T13:28:04.450Z,70.18
2018-03-28T13:29:08.632Z,69.97
2018-03-28T13:30:12.062Z,69.58
2018-03-28T13:31:15.404Z,69.39
2018-03-28T13:32:18.725Z,69.33
2018-03-28T13:33:22.065Z,69.38
2018-03-28T13:34:25.397Z,69.50
2018-03-28T13:35:28.883Z,69.52
2018-03-28T13:36:32.256Z,69.55